Tenerife Sur - Aeropuerto en Canarias

latitud = 28° 2' 49''N | longitud = 016° 33' 40''W
64 metros sobre el nivel del mar |

Fecha, hora, temperatura, viento dirección y velocidad, humedad y presión.

  • 24-09-2017 23:00:00 | 27.10°C | Nordeste |17.00 km/h | 55.00% | 1008.10 hPa
  • 24-09-2017 22:00:00 | 29.30°C | Nordeste |17.00 km/h | 41.00% | 1008.30 hPa
  • 24-09-2017 21:00:00 | 25.30°C | Nordeste |21.00 km/h | 74.00% | 1008.80 hPa
  • 24-09-2017 20:00:00 | 27.30°C | Nordeste |12.00 km/h | 64.00% | 1008.50 hPa
  • 24-09-2017 19:00:00 | 26.00°C | Este |22.00 km/h | 74.00% | 1008.50 hPa
  • 24-09-2017 18:00:00 | 27.10°C | Este |24.00 km/h | 69.00% | 1008.50 hPa
  • 24-09-2017 17:00:00 | 28.20°C | Este |26.00 km/h | 64.00% | 1008.30 hPa
  • 24-09-2017 16:00:00 | 29.00°C | Este |26.00 km/h | 61.00% | 1008.10 hPa
  • 24-09-2017 15:00:00 | 35.30°C | Este |18.00 km/h | 30.00% | 1008.00 hPa
  • 24-09-2017 14:00:00 | 32.50°C | Este |19.00 km/h | 35.00% | 1009.20 hPa
  • 24-09-2017 13:00:00 | 29.00°C | Este |27.00 km/h | 56.00% | 1010.00 hPa
  • 24-09-2017 12:00:00 | 27.20°C | Nordeste |34.00 km/h | 63.00% | 1009.70 hPa
  • 24-09-2017 11:00:00 | 26.60°C | Este |28.00 km/h | 62.00% | 1009.30 hPa
  • 24-09-2017 10:00:00 | 24.50°C | Nordeste |30.00 km/h | 70.00% | 1007.90 hPa
  • 24-09-2017 09:00:00 | 22.10°C | Nordeste |30.00 km/h | 82.00% | 1008.30 hPa
  • 24-09-2017 08:00:00 | 21.10°C | Nordeste |16.00 km/h | 87.00% | 1007.60 hPa
  • 24-09-2017 07:00:00 | 20.70°C | Nordeste |9.00 km/h | 83.00% | 1007.10 hPa
  • 24-09-2017 06:00:00 | 20.90°C | Norte |5.00 km/h | 81.00% | 1007.00 hPa
  • 24-09-2017 05:00:00 | 21.40°C | Nordeste |8.00 km/h | 80.00% | 1006.90 hPa
  • 24-09-2017 04:00:00 | 21.90°C | Nordeste |13.00 km/h | 79.00% | 1006.90 hPa
  • 24-09-2017 03:00:00 | 22.10°C | Nordeste |17.00 km/h | 80.00% | 1007.70 hPa
  • 24-09-2017 02:00:00 | 22.40°C | Nordeste |22.00 km/h | 79.00% | 1007.80 hPa
  • 24-09-2017 01:00:00 | 22.50°C | Nordeste |22.00 km/h | 79.00% | 1008.00 hPa
  • 24-09-2017 00:00:00 | 22.90°C | Nordeste |24.00 km/h | 75.00% | 1008.00 hPa